Time;durP1;ratioP1;P1;durP2;ratioP2;P2;SDS_P1;SDS_P2;PMS_P1;PMS_P2;Temp;Humidity;BMP_temperature;BMP_pressure;BME280_temperature;BME280_humidity;BME280_pressure;Samples;Min_cycle;Max_cycle;Signal;HPM_P1;HPM_P2
2021/11/23 00:01:25;;;;;;;3.70;3.25;;;;;;;3.61;68.00;101460.09;10265107;28;20134;-64
2021/11/23 00:06:27;;;;;;;4.20;3.35;;;;;;;3.57;68.07;101468.13;10258635;28;20502;-64
2021/11/23 00:11:28;;;;;;;4.47;3.33;;;;;;;3.51;68.40;101471.81;10271134;28;20055;-65
2021/11/23 00:16:30;;;;;;;4.55;3.40;;;;;;;3.57;68.28;101478.66;10300634;28;20467;-64
2021/11/23 00:21:31;;;;;;;4.10;3.25;;;;;;;3.48;68.51;101478.06;10307271;28;20461;-64
2021/11/23 00:26:33;;;;;;;4.00;3.10;;;;;;;3.60;68.76;101492.59;10294734;28;20061;-64
2021/11/23 00:31:34;;;;;;;5.32;3.33;;;;;;;3.51;68.04;101485.88;10303749;28;20149;-65
2021/11/23 00:36:35;;;;;;;4.50;3.20;;;;;;;3.50;68.57;101476.25;10300540;28;20714;-65
2021/11/23 00:41:37;;;;;;;4.07;3.25;;;;;;;3.36;68.50;101465.25;10301909;28;20137;-65
2021/11/23 00:46:38;;;;;;;4.70;3.13;;;;;;;3.38;68.42;101471.38;10300080;28;20071;-64
2021/11/23 00:51:40;;;;;;;6.22;3.58;;;;;;;3.31;68.97;101467.19;10295917;28;20653;-64
2021/11/23 00:56:43;;;;;;;4.07;3.15;;;;;;;3.42;69.03;101465.06;10305877;28;20498;-64
2021/11/23 01:01:44;;;;;;;3.47;3.17;;;;;;;3.22;68.86;101472.75;10302964;28;20078;-64
2021/11/23 01:06:49;;;;;;;3.70;3.28;;;;;;;3.27;69.08;101468.19;10310046;28;20149;-65
2021/11/23 01:11:50;;;;;;;3.00;2.60;;;;;;;3.34;69.01;101469.72;10319992;28;20716;-65
2021/11/23 01:16:52;;;;;;;5.47;3.22;;;;;;;3.31;68.80;101461.94;10302815;28;20531;-64
2021/11/23 01:21:53;;;;;;;4.07;3.42;;;;;;;3.23;69.10;101458.66;10322375;28;20045;-65
2021/11/23 01:26:54;;;;;;;3.75;3.28;;;;;;;3.23;69.32;101466.53;10303741;28;20056;-65
2021/11/23 01:31:56;;;;;;;5.15;3.45;;;;;;;3.23;69.45;101477.06;10301583;28;20129;-64
2021/11/23 01:36:57;;;;;;;3.20;2.70;;;;;;;3.21;69.21;101481.53;10299808;28;20050;-65
2021/11/23 01:41:59;;;;;;;4.55;3.08;;;;;;;3.21;69.19;101476.28;10302718;28;24135;-64
2021/11/23 01:47:01;;;;;;;5.18;3.83;;;;;;;3.17;69.46;101481.63;10297085;28;20055;-64
2021/11/23 01:52:03;;;;;;;4.07;3.10;;;;;;;3.13;69.80;101490.50;10313850;28;20048;-64
2021/11/23 01:57:05;;;;;;;4.35;3.50;;;;;;;3.17;70.17;101480.78;10300360;28;20051;-65
2021/11/23 02:02:06;;;;;;;3.90;3.38;;;;;;;3.22;69.83;101485.91;10308351;28;20133;-64
2021/11/23 02:07:12;;;;;;;5.30;3.90;;;;;;;3.28;69.85;101483.06;10297897;28;20102;-64
2021/11/23 02:12:14;;;;;;;4.10;3.65;;;;;;;3.32;69.93;101482.09;10298499;28;20126;-64
2021/11/23 02:17:15;;;;;;;5.35;4.25;;;;;;;3.22;69.59;101468.31;10300596;28;20204;-64
2021/11/23 02:22:17;;;;;;;5.65;4.30;;;;;;;3.19;69.91;101474.53;10299400;28;20558;-64
2021/11/23 02:27:18;;;;;;;5.43;3.95;;;;;;;3.19;69.83;101471.06;10259458;28;20453;-64
2021/11/23 02:32:19;;;;;;;6.32;4.35;;;;;;;3.21;70.38;101474.50;10300100;28;20050;-63
2021/11/23 02:37:21;;;;;;;5.47;4.32;;;;;;;3.16;70.09;101472.00;10277654;28;20059;-65
2021/11/23 02:42:22;;;;;;;5.03;3.70;;;;;;;3.07;70.03;101468.78;10258505;28;20422;-64
2021/11/23 02:47:24;;;;;;;5.65;4.15;;;;;;;3.08;70.12;101474.00;10294130;28;20051;-64
2021/11/23 02:52:25;;;;;;;5.25;3.80;;;;;;;3.04;70.18;101459.22;10303388;28;20051;-64
2021/11/23 02:57:28;;;;;;;4.35;3.70;;;;;;;3.08;70.47;101463.50;10306644;28;20576;-64
2021/11/23 03:02:29;;;;;;;5.38;4.13;;;;;;;3.09;70.53;101462.59;10304943;28;20102;-64
2021/11/23 03:07:31;;;;;;;4.07;3.45;;;;;;;3.12;70.53;101473.03;10323853;28;20049;-64
2021/11/23 03:12:32;;;;;;;4.93;4.00;;;;;;;3.07;70.61;101459.13;10301710;28;20134;-65
2021/11/23 03:17:33;;;;;;;5.35;4.13;;;;;;;3.06;70.71;101456.53;10305840;28;20125;-65
2021/11/23 03:22:35;;;;;;;5.68;4.82;;;;;;;3.08;70.89;101459.97;10322396;28;20344;-64
2021/11/23 03:27:37;;;;;;;5.15;4.63;;;;;;;3.11;70.86;101471.28;10304791;28;20046;-65
2021/11/23 03:32:38;;;;;;;4.90;3.97;;;;;;;3.13;70.71;101469.47;10304649;28;20060;-65
2021/11/23 03:37:39;;;;;;;7.43;4.38;;;;;;;3.13;70.87;101464.19;10303723;28;20134;-65
2021/11/23 03:42:41;;;;;;;5.57;5.00;;;;;;;3.09;70.60;101467.84;10299607;28;20046;-64
2021/11/23 03:47:42;;;;;;;5.82;4.82;;;;;;;3.04;70.36;101459.22;10293628;28;20066;-65
2021/11/23 03:52:46;;;;;;;6.90;5.10;;;;;;;3.06;70.71;101457.41;10278598;28;20049;-65
2021/11/23 03:57:50;;;;;;;4.90;4.28;;;;;;;3.04;70.80;101459.22;10259978;28;20061;-65
2021/11/23 04:02:54;;;;;;;6.17;4.87;;;;;;;3.01;70.93;101456.69;10248255;28;22495;-64
2021/11/23 04:07:55;;;;;;;8.75;5.22;;;;;;;2.98;70.89;101454.16;10294571;28;20133;-65
2021/11/23 04:12:57;;;;;;;6.45;4.63;;;;;;;2.99;70.88;101471.66;10306848;28;20173;-65
2021/11/23 04:17:58;;;;;;;5.90;5.15;;;;;;;3.02;71.06;101476.81;10302964;28;20125;-65
2021/11/23 04:22:59;;;;;;;6.82;4.93;;;;;;;2.89;71.01;101472.84;10293697;28;20102;-65
2021/11/23 04:28:01;;;;;;;8.07;6.00;;;;;;;2.81;71.52;101478.31;10301152;28;20050;-65
2021/11/23 04:33:02;;;;;;;6.22;5.32;;;;;;;2.82;71.13;101475.63;10300421;28;20575;-65
2021/11/23 04:38:04;;;;;;;6.13;5.53;;;;;;;2.65;70.94;101467.34;10293021;28;20473;-65
2021/11/23 04:43:06;;;;;;;10.90;6.80;;;;;;;2.56;71.20;101459.72;10296025;28;20054;-65
2021/11/23 04:48:08;;;;;;;10.00;6.80;;;;;;;2.54;71.45;101459.78;10290691;28;20130;-65
2021/11/23 04:53:09;;;;;;;9.00;6.60;;;;;;;2.59;71.62;101467.53;10294497;28;20043;-64
2021/11/23 04:58:12;;;;;;;8.05;6.10;;;;;;;2.55;71.36;101463.25;10290096;28;20058;-65
2021/11/23 05:03:13;;;;;;;8.73;6.10;;;;;;;2.51;71.22;101464.22;10293949;28;20405;-65
2021/11/23 05:08:14;;;;;;;9.40;5.97;;;;;;;2.41;71.22;101466.28;10286195;28;20129;-65
2021/11/23 05:13:16;;;;;;;8.57;6.40;;;;;;;2.37;71.42;101460.25;10291134;28;20055;-65
2021/11/23 05:18:17;;;;;;;7.65;5.68;;;;;;;2.22;71.43;101460.63;10297294;28;20077;-65
2021/11/23 05:23:19;;;;;;;8.38;6.25;;;;;;;2.24;71.64;101464.09;10296222;28;20051;-65
2021/11/23 05:28:20;;;;;;;8.85;7.35;;;;;;;2.14;72.37;101457.34;10288254;28;20394;-65
2021/11/23 05:33:22;;;;;;;8.13;6.18;;;;;;;2.06;72.61;101461.03;10292594;28;20130;-65
2021/11/23 05:38:23;;;;;;;11.75;7.60;;;;;;;2.07;72.32;101464.53;10296334;28;20134;-66
2021/11/23 05:43:24;;;;;;;11.07;8.68;;;;;;;2.03;72.59;101471.63;10292762;28;20049;-65
2021/11/23 05:48:26;;;;;;;11.70;7.30;;;;;;;2.12;72.15;101479.28;10294855;28;20066;-66
2021/11/23 05:53:27;;;;;;;14.60;7.78;;;;;;;2.01;72.63;101467.31;10294146;28;20050;-66
2021/11/23 05:58:29;;;;;;;9.25;7.38;;;;;;;2.02;72.77;101467.25;10296806;28;20078;-67
2021/11/23 06:03:31;;;;;;;7.93;7.13;;;;;;;1.95;73.09;101476.19;10306435;28;20069;-66
2021/11/23 06:08:33;;;;;;;9.27;7.57;;;;;;;1.94;72.65;101458.72;10317602;28;20065;-66
2021/11/23 06:13:35;;;;;;;10.55;8.23;;;;;;;1.84;73.06;101452.84;10323114;28;20555;-65
2021/11/23 06:18:36;;;;;;;9.57;7.47;;;;;;;1.90;73.05;101470.22;10323163;28;20558;-65
2021/11/23 06:23:38;;;;;;;15.18;11.55;;;;;;;1.88;73.18;101469.41;10324460;28;20050;-67
2021/11/23 06:28:39;;;;;;;14.98;13.20;;;;;;;1.93;72.88;101475.38;10325263;28;20050;-66
2021/11/23 06:33:41;;;;;;;9.82;8.82;;;;;;;1.93;73.04;101494.63;10325867;28;20125;-66
2021/11/23 06:38:42;;;;;;;8.98;7.40;;;;;;;1.90;73.07;101499.94;10323409;28;20181;-66
2021/11/23 06:43:45;;;;;;;10.23;7.70;;;;;;;1.82;73.41;101506.28;10324576;28;20046;-65
2021/11/23 06:48:47;;;;;;;9.55;7.97;;;;;;;1.79;73.69;101516.84;10323425;28;20054;-66
2021/11/23 06:53:48;;;;;;;9.30;7.40;;;;;;;1.81;73.94;101526.44;10330264;28;20049;-66
2021/11/23 06:58:50;;;;;;;9.10;7.45;;;;;;;1.77;73.71;101533.53;10328137;28;20520;-65
2021/11/23 07:03:51;;;;;;;13.57;7.97;;;;;;;1.85;73.35;101554.34;10326105;28;20131;-70
2021/11/23 07:08:53;;;;;;;11.02;7.97;;;;;;;1.83;73.83;101558.78;10327675;28;20062;-67
2021/11/23 07:13:54;;;;;;;12.25;7.72;;;;;;;1.87;73.77;101563.03;10323299;28;20045;-65
2021/11/23 07:18:56;;;;;;;12.43;8.35;;;;;;;2.01;73.08;101569.75;10323907;28;20050;-65
2021/11/23 07:23:58;;;;;;;10.88;7.75;;;;;;;2.01;72.74;101562.75;10319155;28;20108;-65
2021/11/23 07:29:01;;;;;;;10.55;8.30;;;;;;;2.02;72.79;101556.56;10322439;28;20528;-63
2021/11/23 07:34:03;;;;;;;9.73;7.75;;;;;;;2.08;72.40;101563.44;10302033;28;20046;-65
2021/11/23 07:39:08;;;;;;;13.02;8.25;;;;;;;2.13;72.77;101564.19;10265264;28;20081;-67
2021/11/23 07:44:10;;;;;;;11.57;8.50;;;;;;;2.18;72.26;101566.69;10334584;28;20108;-66
2021/11/23 07:49:12;;;;;;;10.75;8.35;;;;;;;2.21;72.10;101569.28;10312448;28;20056;-66
2021/11/23 07:54:14;;;;;;;10.55;7.63;;;;;;;2.24;71.88;101566.56;10318758;28;20060;-66
2021/11/23 07:59:16;;;;;;;10.25;8.18;;;;;;;2.27;71.57;101566.50;10293011;28;20062;-66
2021/11/23 08:04:17;;;;;;;12.63;7.20;;;;;;;2.26;72.07;101575.28;10319911;28;20173;-66
2021/11/23 08:09:18;;;;;;;7.93;7.07;;;;;;;2.36;72.03;101587.28;10312922;28;20367;-66
2021/11/23 08:14:24;;;;;;;8.13;7.28;;;;;;;2.44;72.07;101580.06;10319669;28;20168;-67
2021/11/23 08:19:25;;;;;;;13.68;8.20;;;;;;;2.63;71.66;101595.38;10319636;28;20049;-65
2021/11/23 08:24:26;;;;;;;9.75;7.13;;;;;;;2.76;71.40;101590.63;10324084;28;20579;-65
2021/11/23 08:29:28;;;;;;;9.27;6.85;;;;;;;2.87;70.89;101579.81;10266431;28;20425;-66
2021/11/23 08:34:29;;;;;;;7.50;6.78;;;;;;;2.91;70.38;101585.00;10261694;28;20421;-66
2021/11/23 08:39:31;;;;;;;8.02;7.22;;;;;;;3.06;70.37;101588.94;10257341;28;20050;-66
2021/11/23 08:44:32;;;;;;;11.63;7.55;;;;;;;3.14;70.12;101584.34;10257526;28;20050;-66
2021/11/23 08:49:34;;;;;;;8.45;7.22;;;;;;;3.29;70.07;101579.56;10258418;28;20051;-65
2021/11/23 08:54:35;;;;;;;9.35;7.22;;;;;;;3.40;70.25;101581.88;10257944;28;20065;-64
2021/11/23 08:59:41;;;;;;;8.23;6.68;;;;;;;3.31;69.24;101577.72;10259661;28;20057;-64
2021/11/23 09:04:43;;;;;;;7.95;7.22;;;;;;;3.30;69.49;101583.91;10252758;28;20440;-64
2021/11/23 09:09:45;;;;;;;9.40;6.93;;;;;;;3.43;69.61;101577.38;10301641;28;20064;-64
2021/11/23 09:14:51;;;;;;;8.65;7.72;;;;;;;3.70;68.69;101583.56;10313334;28;20133;-64
2021/11/23 09:19:53;;;;;;;8.27;7.10;;;;;;;3.79;68.50;101585.06;10284343;28;20080;-64
2021/11/23 09:24:55;;;;;;;9.43;8.48;;;;;;;3.98;67.91;101595.00;10275514;28;20332;-63
2021/11/23 09:29:56;;;;;;;10.48;8.85;;;;;;;4.18;67.25;101592.63;10278346;28;20050;-65
2021/11/23 09:34:59;;;;;;;9.48;7.50;;;;;;;4.30;66.68;101598.41;10278307;28;20051;-65
2021/11/23 09:40:00;;;;;;;10.15;7.70;;;;;;;4.64;66.66;101594.63;10278574;28;20497;-64
2021/11/23 09:45:04;;;;;;;8.27;7.20;;;;;;;4.97;64.97;101592.59;10306294;28;20481;-65
2021/11/23 09:50:06;;;;;;;9.65;8.75;;;;;;;5.31;63.83;101597.53;10300265;28;20100;-65
2021/11/23 09:55:10;;;;;;;9.95;7.82;;;;;;;5.63;62.92;101597.19;10313892;28;20157;-67
2021/11/23 10:00:33;;;;;;;9.93;8.20;;;;;;;6.08;61.00;101587.56;10314124;28;20578;-65
2021/11/23 10:05:37;;;;;;;10.65;7.72;;;;;;;6.87;58.64;101591.28;10255926;28;20057;-65
2021/11/23 10:10:51;;;;;;;12.02;8.73;;;;;;;6.53;59.08;101595.41;10312583;28;20057;-65
2021/11/23 10:15:53;;;;;;;9.70;7.43;;;;;;;6.42;58.94;101580.91;10273786;28;20046;-65
2021/11/23 10:21:12;;;;;;;11.23;7.63;;;;;;;7.46;56.31;101572.81;10277198;28;20050;-66
2021/11/23 10:26:20;;;;;;;10.20;7.22;;;;;;;12.56;43.68;101568.78;10274353;28;20059;-65
2021/11/23 10:31:27;;;;;;;8.10;6.47;;;;;;;15.78;36.88;101562.75;10277452;28;20057;-68
2021/11/23 10:36:31;;;;;;;8.32;6.70;;;;;;;17.60;34.62;101557.16;10274311;28;20054;-68
2021/11/23 10:41:33;;;;;;;8.45;7.63;;;;;;;18.47;30.21;101550.16;10275191;28;20343;-67
2021/11/23 10:46:35;;;;;;;7.68;6.88;;;;;;;19.02;28.98;101539.56;10273633;28;20069;-67
2021/11/23 10:51:39;;;;;;;7.57;6.05;;;;;;;20.16;28.92;101532.06;10276019;28;20051;-68
2021/11/23 10:57:02;;;;;;;8.70;6.22;;;;;;;19.40;27.97;101515.22;10277627;28;20064;-68
2021/11/23 11:02:07;;;;;;;8.07;6.22;;;;;;;21.01;26.79;101516.97;10284628;28;20424;-68
2021/11/23 11:07:11;;;;;;;8.80;6.97;;;;;;;21.14;25.71;101505.69;10277484;28;20469;-68
2021/11/23 11:12:13;;;;;;;;;;;;;;;21.79;24.77;101504.22;10295114;28;20045;-69
2021/11/23 11:17:15;;;;;;;9.10;6.20;;;;;;;22.06;23.95;101489.50;10320689;28;19929;-69
2021/11/23 11:22:24;;;;;;;8.68;6.50;;;;;;;23.14;23.14;101482.03;10321881;28;20061;-67
2021/11/23 11:27:32;;;;;;;6.60;5.68;;;;;;;24.70;22.89;101486.34;10323393;28;20053;-68
2021/11/23 11:32:35;;;;;;;5.88;5.10;;;;;;;24.35;21.38;101479.72;10319298;28;20104;-69
2021/11/23 11:37:37;;;;;;;6.68;5.05;;;;;;;24.93;20.55;101471.78;10321862;28;20061;-68
2021/11/23 11:42:39;;;;;;;8.00;5.60;;;;;;;25.26;20.25;101465.91;10320156;28;20144;-68
2021/11/23 11:47:42;;;;;;;9.77;5.40;;;;;;;25.47;19.65;101464.28;10321384;28;20049;-69
2021/11/23 11:53:03;;;;;;;5.00;4.38;;;;;;;26.72;19.35;101451.09;10313037;28;20538;-68
2021/11/23 11:58:05;;;;;;;5.82;5.28;;;;;;;26.39;18.89;101449.84;10322402;28;20053;-68
2021/11/23 12:03:18;;;;;;;5.40;4.38;;;;;;;26.31;18.28;101449.97;10321517;28;20045;-68
2021/11/23 12:08:22;;;;;;;7.47;4.50;;;;;;;26.66;18.60;101433.59;10315721;28;20119;-68
2021/11/23 12:13:49;;;;;;;9.00;5.60;;;;;;;27.01;17.88;101435.47;10320153;28;20050;-68
2021/11/23 12:19:28;;;;;;;6.55;5.55;;;;;;;24.22;20.83;101439.53;10318471;28;20045;-68
2021/11/23 12:24:32;;;;;;;6.60;5.93;;;;;;;25.86;19.86;101435.72;10321125;28;20051;-68
2021/11/23 12:29:34;;;;;;;7.70;5.57;;;;;;;25.42;19.81;101421.25;10319963;28;20484;-68
2021/11/23 12:34:36;;;;;;;6.30;4.78;;;;;;;23.21;21.77;101425.13;10323346;28;20178;-68
2021/11/23 12:39:38;;;;;;;7.15;4.95;;;;;;;21.83;23.94;101418.84;10321931;28;20053;-68
2021/11/23 12:44:43;;;;;;;9.02;5.05;;;;;;;19.96;26.06;101406.06;10322993;28;20054;-68
2021/11/23 12:49:55;;;;;;;5.30;4.80;;;;;;;22.77;23.36;101393.94;10315231;28;20156;-68
2021/11/23 12:54:57;;;;;;;7.72;4.68;;;;;;;25.46;19.48;101383.56;10315394;28;20068;-68
2021/11/23 13:00:05;;;;;;;4.90;3.72;;;;;;;26.91;18.68;101375.78;10319386;28;20057;-68
2021/11/23 13:05:16;;;;;;;6.95;3.95;;;;;;;25.04;19.67;101386.88;10324187;28;20406;-68
2021/11/23 13:10:21;;;;;;;6.28;2.85;;;;;;;20.05;25.42;101398.88;10314136;28;20502;-67
2021/11/23 13:15:29;;;;;;;8.43;5.07;;;;;;;17.25;29.73;101402.38;10315682;28;20050;-66
2021/11/23 13:20:54;;;;;;;4.65;3.30;;;;;;;15.50;33.05;101398.59;10316802;28;20049;-67
2021/11/23 13:26:14;;;;;;;8.10;3.42;;;;;;;14.10;35.16;101396.38;10318177;28;20362;-67
2021/11/23 13:31:25;;;;;;;7.38;2.90;;;;;;;13.79;36.26;101386.16;10317119;28;20352;-66
2021/11/23 13:36:30;;;;;;;6.15;3.67;;;;;;;13.43;37.37;101398.66;10315740;28;20063;-67
2021/11/23 13:41:33;;;;;;;6.47;4.45;;;;;;;12.83;38.19;101394.16;10315043;28;20093;-66
2021/11/23 13:46:44;;;;;;;7.78;4.43;;;;;;;12.30;39.77;101394.34;10319208;28;20062;-66
2021/11/23 13:51:45;;;;;;;6.97;4.65;;;;;;;12.01;40.95;101392.72;10316198;28;20062;-66
2021/11/23 13:56:53;;;;;;;6.53;4.53;;;;;;;11.65;42.28;101385.38;10318886;28;20080;-66
2021/11/23 14:01:54;;;;;;;7.35;4.15;;;;;;;11.36;42.80;101390.78;10317026;28;20064;-66
2021/11/23 14:07:05;;;;;;;7.95;4.80;;;;;;;11.03;44.04;101389.38;10320317;28;20072;-65
2021/11/23 14:12:08;;;;;;;7.95;4.75;;;;;;;10.90;44.71;101383.13;10310850;28;20165;-66
2021/11/23 14:17:09;;;;;;;6.80;5.20;;;;;;;10.72;45.73;101370.03;10314260;28;20045;-66
2021/11/23 14:22:12;;;;;;;5.88;5.03;;;;;;;10.54;45.98;101385.34;10321440;28;20050;-66
2021/11/23 14:27:13;;;;;;;7.85;4.20;;;;;;;10.38;47.06;101382.78;10317813;28;20046;-66
2021/11/23 14:32:14;;;;;;;7.13;4.57;;;;;;;10.22;47.66;101377.53;10307417;28;20084;-66
2021/11/23 14:37:16;;;;;;;9.15;4.20;;;;;;;10.03;47.96;101377.78;10322645;28;20053;-66
2021/11/23 14:42:17;;;;;;;6.38;3.72;;;;;;;9.94;48.87;101388.97;10326936;28;20419;-66
2021/11/23 14:47:19;;;;;;;6.60;5.43;;;;;;;9.84;49.67;101393.13;10323785;28;20563;-66
2021/11/23 14:52:20;;;;;;;4.05;3.65;;;;;;;9.78;49.85;101394.34;10322101;28;20070;-66
2021/11/23 14:57:22;;;;;;;7.60;4.53;;;;;;;9.65;50.01;101388.91;10321398;28;20672;-65
2021/11/23 15:02:24;;;;;;;5.18;3.80;;;;;;;9.47;50.58;101385.53;10316287;28;20060;-65
2021/11/23 15:07:25;;;;;;;5.78;3.72;;;;;;;9.34;51.08;101392.47;10325171;28;20068;-66
2021/11/23 15:12:27;;;;;;;5.40;3.47;;;;;;;9.23;51.08;101394.88;10319178;28;20141;-66
2021/11/23 15:17:29;;;;;;;4.43;3.20;;;;;;;9.18;51.07;101395.13;10325082;28;22370;-66
2021/11/23 15:22:30;;;;;;;5.30;3.67;;;;;;;9.06;51.31;101394.03;10309961;28;20055;-65
2021/11/23 15:27:31;;;;;;;6.80;3.33;;;;;;;9.03;51.35;101397.69;10298254;28;20157;-66
2021/11/23 15:32:33;;;;;;;4.97;3.25;;;;;;;8.81;52.01;101387.44;10323025;28;20457;-65
2021/11/23 15:37:35;;;;;;;5.22;3.28;;;;;;;8.79;52.40;101389.28;10302318;28;20062;-65
2021/11/23 15:42:38;;;;;;;4.28;3.88;;;;;;;8.77;52.36;101382.38;10309180;28;20050;-66
2021/11/23 15:47:40;;;;;;;6.45;3.63;;;;;;;8.70;52.85;101379.19;10301299;28;20047;-65
2021/11/23 15:52:42;;;;;;;5.25;3.70;;;;;;;8.78;52.94;101381.41;10293192;28;20057;-65
2021/11/23 15:57:43;;;;;;;5.30;3.40;;;;;;;8.69;53.48;101384.59;10306534;28;20493;-66
2021/11/23 16:03:05;;;;;;;5.93;4.13;;;;;;;8.62;53.36;101400.00;10279006;28;20054;-66
2021/11/23 16:08:07;;;;;;;7.40;4.78;;;;;;;8.59;53.55;101389.56;10294350;28;20058;-66
2021/11/23 16:13:09;;;;;;;7.25;5.20;;;;;;;8.55;53.83;101401.25;10304253;28;20312;-66
2021/11/23 16:18:10;;;;;;;7.95;5.65;;;;;;;8.48;54.06;101400.72;10306797;28;20133;-66
2021/11/23 16:23:29;;;;;;;4.38;3.90;;;;;;;8.45;53.94;101401.75;10280027;28;20073;-67
2021/11/23 16:28:30;;;;;;;6.03;3.75;;;;;;;8.48;54.06;101390.97;10307163;28;20046;-65
2021/11/23 16:33:32;;;;;;;5.70;3.88;;;;;;;8.43;54.58;101395.63;10306424;28;20120;-66
2021/11/23 16:38:34;;;;;;;3.85;2.95;;;;;;;8.41;54.19;101394.84;10286066;28;20401;-66
2021/11/23 16:43:37;;;;;;;5.45;3.67;;;;;;;8.38;54.38;101396.84;10291339;28;20068;-66
2021/11/23 16:48:40;;;;;;;7.30;3.50;;;;;;;8.31;54.75;101380.38;10290550;28;20085;-65
2021/11/23 16:53:43;;;;;;;5.45;3.65;;;;;;;8.21;55.07;101379.13;10287802;28;20477;-65
2021/11/23 16:58:44;;;;;;;5.07;4.00;;;;;;;8.30;55.35;101397.22;10291851;28;20129;-66
2021/11/23 17:04:07;;;;;;;4.05;3.65;;;;;;;8.26;55.67;101385.06;10296145;28;20054;-66
2021/11/23 17:09:09;;;;;;;8.75;4.50;;;;;;;8.23;55.97;101386.09;10291795;28;20508;-65
2021/11/23 17:14:10;;;;;;;5.10;4.00;;;;;;;8.22;56.12;101388.81;10295169;28;20042;-67
2021/11/23 17:19:13;;;;;;;5.85;5.15;;;;;;;8.19;56.66;101386.31;10295311;28;20061;-66
2021/11/23 17:24:15;;;;;;;7.72;4.55;;;;;;;8.20;56.83;101396.00;10287682;28;20054;-66
2021/11/23 17:29:19;;;;;;;6.00;3.85;;;;;;;8.19;57.00;101395.13;10293403;28;20046;-67
2021/11/23 17:34:24;;;;;;;8.88;4.30;;;;;;;8.13;57.33;101396.28;10296989;28;20097;-66
2021/11/23 17:39:27;;;;;;;8.10;4.65;;;;;;;8.11;57.70;101392.88;10300048;28;20404;-66
2021/11/23 17:44:31;;;;;;;7.18;5.50;;;;;;;8.05;57.33;101393.19;10314918;28;20050;-66
2021/11/23 17:49:32;;;;;;;6.43;4.90;;;;;;;8.05;57.97;101384.41;10292218;28;20089;-66
2021/11/23 17:54:34;;;;;;;6.68;3.95;;;;;;;8.02;57.71;101388.06;10293136;28;20068;-66
2021/11/23 17:59:40;;;;;;;9.60;5.70;;;;;;;8.16;57.94;101390.00;10290693;28;20056;-66
2021/11/23 18:04:42;;;;;;;8.70;5.00;;;;;;;8.19;57.29;101391.63;10295036;28;20109;-66
2021/11/23 18:09:44;;;;;;;6.60;4.72;;;;;;;8.14;57.31;101397.19;10294087;28;20578;-66
2021/11/23 18:14:47;;;;;;;5.30;4.25;;;;;;;8.19;57.53;101400.44;10301153;28;20141;-65
2021/11/23 18:19:49;;;;;;;5.13;4.10;;;;;;;8.22;57.17;101400.28;10296644;28;21606;-65
2021/11/23 18:24:50;;;;;;;5.28;4.43;;;;;;;8.23;56.54;101398.50;10268754;28;20042;-66
2021/11/23 18:29:52;;;;;;;7.65;4.78;;;;;;;8.24;57.02;101402.84;10276173;28;20055;-64
2021/11/23 18:34:54;;;;;;;6.65;4.15;;;;;;;8.25;56.75;101394.81;10258980;28;20131;-65
2021/11/23 18:39:56;;;;;;;7.15;5.43;;;;;;;8.33;56.99;101386.44;10273736;28;20133;-65
2021/11/23 18:44:59;;;;;;;5.45;3.38;;;;;;;8.24;57.38;101397.53;10260396;28;20096;-64
2021/11/23 18:50:00;;;;;;;3.08;2.00;;;;;;;8.21;57.32;101387.09;10253675;28;20090;-65
2021/11/23 18:55:04;;;;;;;4.35;2.33;;;;;;;8.19;57.83;101379.22;10265672;28;20070;-67
2021/11/23 19:00:08;;;;;;;4.50;3.08;;;;;;;8.24;58.04;101386.94;10258563;28;20134;-66
2021/11/23 19:05:10;;;;;;;4.57;2.60;;;;;;;8.26;57.60;101379.75;10277502;28;20078;-66
2021/11/23 19:10:13;;;;;;;6.70;3.08;;;;;;;8.25;58.55;101386.84;10253416;28;20106;-65
2021/11/23 19:15:17;;;;;;;12.82;3.70;;;;;;;8.17;58.29;101381.09;10258295;28;20487;-65
2021/11/23 19:20:19;;;;;;;8.95;5.40;;;;;;;8.07;58.37;101380.72;10255653;28;20138;-66
2021/11/23 19:25:21;;;;;;;13.40;9.38;;;;;;;8.04;59.11;101391.47;10279084;28;20466;-66
2021/11/23 19:30:24;;;;;;;9.77;7.15;;;;;;;7.97;59.59;101384.78;10286502;28;20054;-65
2021/11/23 19:35:26;;;;;;;9.68;6.68;;;;;;;7.93;59.46;101388.53;10302288;28;20050;-66
2021/11/23 19:40:30;;;;;;;9.57;6.43;;;;;;;7.94;59.93;101391.09;10295054;28;20413;-65
2021/11/23 19:45:33;;;;;;;8.52;6.20;;;;;;;7.90;60.42;101388.69;10302683;28;20104;-65
2021/11/23 19:50:35;;;;;;;7.07;5.88;;;;;;;7.90;60.86;101386.03;10303137;28;20113;-66
2021/11/23 19:55:37;;;;;;;8.32;6.72;;;;;;;7.90;60.79;101404.59;10295724;28;20058;-66
2021/11/23 20:00:40;;;;;;;10.48;6.30;;;;;;;7.88;61.37;101393.19;10310194;28;20464;-65
2021/11/23 20:05:44;;;;;;;9.20;7.20;;;;;;;7.85;61.44;101396.00;10297694;28;20501;-66
2021/11/23 20:10:45;;;;;;;8.50;6.68;;;;;;;7.85;61.38;101396.00;10310804;28;20050;-67
2021/11/23 20:15:47;;;;;;;9.90;7.03;;;;;;;7.82;61.51;101398.81;10303847;28;20148;-66
2021/11/23 20:20:48;;;;;;;7.15;6.45;;;;;;;7.79;61.02;101395.41;10308097;28;20316;-67
2021/11/23 20:25:50;;;;;;;7.97;6.68;;;;;;;7.81;61.43;101400.63;10306202;28;20057;-68
2021/11/23 20:30:52;;;;;;;9.80;7.85;;;;;;;7.76;60.93;101392.03;10300133;28;20056;-65
2021/11/23 20:35:53;;;;;;;6.80;6.18;;;;;;;7.72;60.52;101390.50;10290117;28;20746;-65
2021/11/23 20:40:55;;;;;;;8.82;5.78;;;;;;;7.53;60.34;101366.69;10265873;28;20137;-66
2021/11/23 20:45:56;;;;;;;6.85;5.65;;;;;;;7.67;59.81;101379.25;10294596;28;20427;-65
2021/11/23 20:50:58;;;;;;;7.13;5.78;;;;;;;7.64;59.10;101374.97;10299489;28;20042;-66
2021/11/23 20:56:00;;;;;;;8.90;6.53;;;;;;;7.67;59.20;101373.94;10302752;28;20056;-66
2021/11/23 21:01:01;;;;;;;7.07;6.40;;;;;;;7.66;59.51;101365.16;10311617;28;20133;-66
2021/11/23 21:06:10;;;;;;;8.32;6.40;;;;;;;7.61;59.47;101369.81;10301279;28;20061;-65
2021/11/23 21:11:11;;;;;;;9.18;6.00;;;;;;;7.56;59.70;101355.94;10302953;28;20083;-64
2021/11/23 21:16:13;;;;;;;7.75;6.25;;;;;;;7.60;60.29;101350.41;10297534;28;20122;-66
2021/11/23 21:21:14;;;;;;;6.03;5.38;;;;;;;7.65;60.44;101349.31;10299779;28;20057;-65
2021/11/23 21:26:16;;;;;;;8.65;6.78;;;;;;;7.72;60.46;101348.09;10300475;28;20394;-65
2021/11/23 21:31:18;;;;;;;7.95;6.55;;;;;;;7.61;60.59;101330.06;10317660;28;20119;-64
2021/11/23 21:36:20;;;;;;;8.10;7.28;;;;;;;7.58;60.47;101336.38;10297325;23;20137;-65
2021/11/23 21:41:21;;;;;;;9.82;8.68;;;;;;;7.58;60.59;101346.09;10268051;28;20287;-64
2021/11/23 21:51:25;;;;;;;7.47;5.22;;;;;;;7.41;60.14;101321.31;10306358;28;20227;-63
2021/11/23 21:56:28;;;;;;;7.53;5.68;;;;;;;7.48;60.65;101339.59;10306414;28;20074;-65
2021/11/23 22:01:29;;;;;;;7.43;5.65;;;;;;;7.40;61.05;101343.47;10309679;28;20054;-65
2021/11/23 22:06:31;;;;;;;7.13;6.22;;;;;;;7.43;61.59;101342.44;10267025;28;20062;-66
2021/11/23 22:11:32;;;;;;;6.28;5.57;;;;;;;7.44;61.02;101334.41;10266918;28;20075;-64
2021/11/23 22:16:34;;;;;;;8.38;5.88;;;;;;;7.35;61.43;101332.22;10260472;28;22207;-64
2021/11/23 22:21:35;;;;;;;9.57;6.55;;;;;;;7.23;61.83;101319.59;10259879;28;20047;-64
2021/11/23 22:26:38;;;;;;;7.43;6.50;;;;;;;7.25;61.92;101323.00;10255708;28;20054;-63
2021/11/23 22:31:39;;;;;;;7.00;5.93;;;;;;;7.21;62.21;101317.03;10257036;28;20085;-63
2021/11/23 22:36:41;;;;;;;5.90;5.30;;;;;;;7.17;62.13;101317.25;10305676;28;20497;-63
2021/11/23 22:41:43;;;;;;;7.03;6.35;;;;;;;7.17;62.79;101326.03;10303826;28;20133;-63
2021/11/23 22:46:45;;;;;;;8.57;6.13;;;;;;;7.11;62.51;101299.03;10304384;28;20133;-63
2021/11/23 22:51:46;;;;;;;7.45;6.75;;;;;;;7.04;62.93;101304.63;10303537;28;20089;-63
2021/11/23 22:56:49;;;;;;;7.80;6.88;;;;;;;6.92;63.45;101309.66;10308592;28;20097;-62
2021/11/23 23:01:51;;;;;;;8.30;6.13;;;;;;;6.91;63.75;101314.09;10311069;28;20050;-62
2021/11/23 23:06:53;;;;;;;9.13;6.35;;;;;;;6.75;64.24;101300.72;10308357;28;20050;-63
2021/11/23 23:11:54;;;;;;;8.70;6.03;;;;;;;6.73;64.55;101306.09;10309292;28;20066;-63
2021/11/23 23:16:56;;;;;;;9.40;7.90;;;;;;;6.64;64.95;101301.25;10310825;28;20073;-61
2021/11/23 23:21:57;;;;;;;7.50;6.07;;;;;;;6.62;65.31;101286.38;10322858;28;20046;-64
2021/11/23 23:27:07;;;;;;;9.20;6.07;;;;;;;6.55;65.22;101276.06;10309578;28;20102;-62